createdAt,value
2022-11-09T00:01:30.030Z,100.00
2022-11-09T00:04:00.082Z,100.00
2022-11-09T00:06:29.584Z,100.00
2022-11-09T00:09:01.316Z,100.00
2022-11-09T00:11:32.439Z,100.00
2022-11-09T00:14:00.820Z,100.00
2022-11-09T00:16:28.837Z,100.00
2022-11-09T00:19:01.057Z,100.00
2022-11-09T00:21:28.966Z,100.00
2022-11-09T00:23:57.366Z,100.00
2022-11-09T00:26:26.427Z,100.00
2022-11-09T00:28:54.463Z,100.00
2022-11-09T00:31:24.384Z,100.00
2022-11-09T00:33:55.574Z,100.00
2022-11-09T00:36:24.453Z,100.00
2022-11-09T00:38:58.636Z,100.00
2022-11-09T00:41:27.732Z,100.00
2022-11-09T00:43:56.728Z,100.00
2022-11-09T00:46:25.685Z,100.00
2022-11-09T00:48:56.169Z,100.00
2022-11-09T00:51:24.387Z,100.00
2022-11-09T00:53:55.951Z,100.00
2022-11-09T00:56:27.112Z,100.00
2022-11-09T00:58:56.275Z,100.00
2022-11-09T01:01:28.363Z,100.00
2022-11-09T01:03:57.656Z,100.00
2022-11-09T01:06:27.539Z,100.00
2022-11-09T01:08:55.944Z,100.00
2022-11-09T01:11:24.988Z,100.00
2022-11-09T01:13:54.579Z,100.00
2022-11-09T01:16:24.300Z,100.00
2022-11-09T01:18:54.657Z,100.00
2022-11-09T01:21:26.701Z,100.00
2022-11-09T01:23:56.054Z,100.00
2022-11-09T01:26:24.133Z,100.00
2022-11-09T01:28:52.763Z,100.00
2022-11-09T01:31:22.031Z,100.00
2022-11-09T01:33:50.392Z,100.00
2022-11-09T01:36:23.603Z,100.00
2022-11-09T01:38:51.579Z,100.00
2022-11-09T01:41:23.457Z,100.00
2022-11-09T01:44:18.047Z,100.00
2022-11-09T01:46:49.189Z,100.00
2022-11-09T01:49:41.073Z,100.00
2022-11-09T01:52:45.151Z,100.00
2022-11-09T01:55:21.507Z,100.00
2022-11-09T01:58:02.481Z,100.00
2022-11-09T02:00:37.775Z,100.00
2022-11-09T02:03:28.984Z,100.00
2022-11-09T02:05:58.895Z,100.00
2022-11-09T02:08:27.442Z,100.00
2022-11-09T02:11:08.974Z,100.00
2022-11-09T02:13:40.872Z,100.00
2022-11-09T02:16:13.096Z,100.00
2022-11-09T02:18:49.701Z,100.00
2022-11-09T02:21:19.662Z,100.00
2022-11-09T02:23:49.341Z,100.00
2022-11-09T02:26:43.881Z,100.00
2022-11-09T02:29:17.432Z,100.00
2022-11-09T02:31:52.448Z,100.00
2022-11-09T02:34:23.118Z,100.00
2022-11-09T02:36:51.258Z,100.00
2022-11-09T02:39:25.948Z,100.00
2022-11-09T02:42:02.761Z,100.00
2022-11-09T02:44:40.958Z,100.00
2022-11-09T02:47:09.819Z,100.00
2022-11-09T02:49:37.888Z,100.00
2022-11-09T02:52:06.062Z,100.00
2022-11-09T02:54:34.345Z,100.00
2022-11-09T02:57:02.614Z,100.00
2022-11-09T02:59:31.094Z,100.00
2022-11-09T03:01:59.779Z,100.00
2022-11-09T03:04:29.900Z,100.00
2022-11-09T03:06:59.338Z,100.00
2022-11-09T03:09:27.577Z,100.00
2022-11-09T03:11:58.001Z,100.00
2022-11-09T03:14:28.267Z,100.00
2022-11-09T03:16:57.891Z,100.00
2022-11-09T03:19:26.213Z,100.00
2022-11-09T03:21:54.341Z,100.00
2022-11-09T03:24:24.427Z,100.00
2022-11-09T03:26:53.700Z,100.00
2022-11-09T03:29:22.177Z,100.00
2022-11-09T03:31:50.153Z,100.00
2022-11-09T03:34:18.218Z,100.00
2022-11-09T03:36:46.288Z,100.00
2022-11-09T03:39:14.363Z,100.00
2022-11-09T03:41:42.641Z,100.00
2022-11-09T03:44:10.708Z,100.00
2022-11-09T03:46:38.779Z,100.00
2022-11-09T03:49:06.716Z,100.00
2022-11-09T03:51:34.762Z,100.00
2022-11-09T03:54:02.994Z,100.00
2022-11-09T03:56:31.267Z,100.00
2022-11-09T03:58:59.235Z,100.00
2022-11-09T04:01:27.249Z,100.00
2022-11-09T04:03:55.258Z,100.00
2022-11-09T04:06:23.369Z,100.00
2022-11-09T04:08:51.839Z,100.00
2022-11-09T04:11:20.410Z,100.00
2022-11-09T04:13:48.565Z,100.00
2022-11-09T04:16:16.622Z,100.00
2022-11-09T04:18:44.484Z,100.00
2022-11-09T04:21:12.590Z,100.00
2022-11-09T04:23:40.869Z,100.00
2022-11-09T04:26:10.660Z,100.00
2022-11-09T04:28:38.647Z,100.00
2022-11-09T04:31:06.823Z,100.00
2022-11-09T04:33:34.874Z,100.00
2022-11-09T04:36:05.137Z,100.00
2022-11-09T04:38:33.361Z,100.00
2022-11-09T04:41:02.762Z,100.00
2022-11-09T04:43:30.799Z,100.00
2022-11-09T04:46:03.265Z,100.00
2022-11-09T04:48:33.049Z,100.00
2022-11-09T04:51:06.793Z,100.00
2022-11-09T04:53:35.571Z,100.00
2022-11-09T04:56:05.484Z,100.00
2022-11-09T04:58:34.177Z,100.00
2022-11-09T05:01:10.216Z,100.00
2022-11-09T05:03:39.073Z,100.00
2022-11-09T05:06:26.959Z,100.00
2022-11-09T05:08:55.630Z,100.00
2022-11-09T05:11:24.037Z,100.00
2022-11-09T05:13:52.404Z,100.00
2022-11-09T05:16:21.132Z,100.00
2022-11-09T05:18:49.809Z,100.00
2022-11-09T05:21:18.865Z,100.00
2022-11-09T05:23:59.051Z,100.00
2022-11-09T05:26:31.457Z,100.00
2022-11-09T05:29:01.116Z,100.00
2022-11-09T05:31:30.139Z,100.00
2022-11-09T05:33:59.601Z,100.00
2022-11-09T05:36:29.410Z,100.00
2022-11-09T05:38:58.670Z,100.00
2022-11-09T05:41:32.524Z,100.00
2022-11-09T05:44:00.651Z,100.00
2022-11-09T05:46:29.337Z,100.00
2022-11-09T05:48:57.498Z,100.00
2022-11-09T05:51:25.887Z,100.00
2022-11-09T05:53:53.967Z,100.00
2022-11-09T05:56:22.018Z,100.00
2022-11-09T05:58:49.973Z,100.00
2022-11-09T06:01:21.511Z,100.00
2022-11-09T06:03:49.454Z,100.00
2022-11-09T06:06:17.960Z,100.00
2022-11-09T06:08:45.999Z,100.00
2022-11-09T06:11:18.475Z,100.00
2022-11-09T06:13:52.491Z,100.00
2022-11-09T06:16:21.035Z,100.00
2022-11-09T06:18:51.184Z,99.79
2022-11-09T06:21:23.472Z,99.76
2022-11-09T06:23:51.467Z,99.74
2022-11-09T06:26:19.475Z,99.31
2022-11-09T06:28:47.483Z,99.16
2022-11-09T06:31:17.074Z,99.39
2022-11-09T06:33:45.140Z,99.56
2022-11-09T06:36:13.802Z,99.64
2022-11-09T06:38:42.380Z,99.73
2022-11-09T06:41:11.097Z,99.76
2022-11-09T06:43:39.110Z,99.72
2022-11-09T06:46:07.536Z,99.73
2022-11-09T06:48:35.581Z,99.69
2022-11-09T06:51:05.425Z,99.64
2022-11-09T06:53:35.165Z,99.60
2022-11-09T06:56:04.949Z,99.78
2022-11-09T06:58:33.292Z,99.83
2022-11-09T07:01:09.947Z,99.72
2022-11-09T07:03:39.618Z,99.78
2022-11-09T07:06:10.099Z,99.60
2022-11-09T07:08:38.575Z,99.39
2022-11-09T07:11:09.143Z,99.36
2022-11-09T07:13:37.193Z,99.26
2022-11-09T07:16:08.569Z,98.92
2022-11-09T07:18:36.472Z,98.89
2022-11-09T07:21:08.877Z,98.77
2022-11-09T07:23:42.129Z,98.62
2022-11-09T07:26:10.230Z,98.45
2022-11-09T07:28:38.713Z,98.24
2022-11-09T07:31:07.315Z,98.11
2022-11-09T07:33:36.393Z,97.16
2022-11-09T07:36:05.895Z,96.95
2022-11-09T07:38:35.302Z,96.61
2022-11-09T07:41:03.270Z,96.59
2022-11-09T07:43:31.336Z,96.81
2022-11-09T07:46:04.196Z,96.75
2022-11-09T07:48:32.191Z,96.03
2022-11-09T07:51:03.424Z,96.23
2022-11-09T07:53:31.607Z,96.56
2022-11-09T07:56:01.627Z,96.64
2022-11-09T07:58:29.694Z,96.71
2022-11-09T08:00:59.381Z,96.56
2022-11-09T08:03:27.667Z,96.53
2022-11-09T08:05:57.922Z,96.53
2022-11-09T08:08:25.856Z,96.53
2022-11-09T08:10:56.246Z,96.67
2022-11-09T08:13:24.685Z,96.87
2022-11-09T08:15:52.647Z,96.94
2022-11-09T08:18:22.724Z,96.91
2022-11-09T08:20:51.344Z,96.99
2022-11-09T08:23:21.135Z,96.92
2022-11-09T08:25:51.170Z,96.81
2022-11-09T08:28:19.674Z,96.76
2022-11-09T08:30:56.017Z,96.46
2022-11-09T08:33:23.984Z,96.75
2022-11-09T08:35:53.317Z,96.71
2022-11-09T08:38:22.567Z,96.82
2022-11-09T08:40:50.703Z,96.63
2022-11-09T08:43:18.581Z,96.48
2022-11-09T08:45:47.601Z,96.45
2022-11-09T08:48:15.477Z,96.37
2022-11-09T08:50:43.348Z,96.09
2022-11-09T08:53:12.049Z,96.05
2022-11-09T08:55:40.003Z,96.04
2022-11-09T08:58:07.841Z,95.52
2022-11-09T09:00:35.736Z,95.31
2022-11-09T09:03:08.418Z,94.62
2022-11-09T09:05:36.849Z,94.12
2022-11-09T09:08:06.425Z,94.08
2022-11-09T09:10:37.909Z,93.92
2022-11-09T09:13:05.924Z,93.38
2022-11-09T09:15:33.751Z,93.43
2022-11-09T09:18:03.598Z,93.64
2022-11-09T09:20:32.795Z,93.48
2022-11-09T09:23:01.163Z,93.55
2022-11-09T09:25:28.990Z,93.30
2022-11-09T09:27:56.909Z,93.11
2022-11-09T09:30:25.400Z,92.49
2022-11-09T09:32:58.174Z,92.72
2022-11-09T09:35:27.776Z,92.92
2022-11-09T09:37:55.553Z,93.03
2022-11-09T09:40:35.032Z,92.68
2022-11-09T09:43:03.661Z,92.65
2022-11-09T09:45:35.828Z,92.92
2022-11-09T09:48:22.466Z,92.38
2022-11-09T09:50:56.276Z,92.51
2022-11-09T09:53:32.345Z,92.02
2022-11-09T09:56:16.952Z,91.92
2022-11-09T09:58:55.993Z,92.07
2022-11-09T10:01:28.261Z,92.07
2022-11-09T10:03:56.699Z,91.96
2022-11-09T10:06:46.649Z,91.26
2022-11-09T10:09:33.329Z,90.81
2022-11-09T10:12:22.699Z,91.10
2022-11-09T10:14:57.890Z,90.72
2022-11-09T10:17:32.013Z,90.92
2022-11-09T10:20:05.667Z,90.01
2022-11-09T10:22:33.418Z,89.76
2022-11-09T10:25:32.092Z,89.69
2022-11-09T10:28:13.585Z,89.64
2022-11-09T10:30:42.374Z,88.81
2022-11-09T10:33:10.341Z,86.89
2022-11-09T10:35:47.614Z,86.72
2022-11-09T10:38:21.681Z,86.79
2022-11-09T10:41:31.769Z,86.74
2022-11-09T10:44:19.769Z,85.75
2022-11-09T10:47:13.990Z,84.90
2022-11-09T10:50:39.631Z,85.93
2022-11-09T10:53:28.829Z,86.05
2022-11-09T10:56:21.838Z,86.52
2022-11-09T10:59:57.153Z,85.96
2022-11-09T11:02:46.462Z,86.40
2022-11-09T11:05:34.618Z,86.95
2022-11-09T11:08:27.277Z,86.36
2022-11-09T11:11:37.893Z,85.74
2022-11-09T11:14:35.409Z,85.41
2022-11-09T11:17:40.996Z,85.26
2022-11-09T11:20:29.986Z,86.15
2022-11-09T11:23:26.275Z,86.56
2022-11-09T11:26:30.800Z,86.24
2022-11-09T11:29:35.625Z,86.62
2022-11-09T11:32:23.672Z,86.35
2022-11-09T11:35:20.934Z,86.34
2022-11-09T11:38:26.370Z,86.45
2022-11-09T11:41:21.074Z,85.32
2022-11-09T11:44:35.694Z,84.97
2022-11-09T11:47:36.639Z,83.48
2022-11-09T11:50:44.779Z,83.02
2022-11-09T11:53:49.283Z,83.01
2022-11-09T11:56:44.569Z,82.17
2022-11-09T11:59:51.011Z,82.19
2022-11-09T12:03:15.915Z,82.32
2022-11-09T12:06:14.685Z,82.68
2022-11-09T12:09:16.813Z,82.21
2022-11-09T12:12:26.167Z,82.49
2022-11-09T12:15:39.516Z,82.05
2022-11-09T12:19:04.592Z,82.36
2022-11-09T12:22:18.172Z,82.41
2022-11-09T12:25:14.018Z,82.37
2022-11-09T12:28:03.571Z,82.25
2022-11-09T12:31:12.834Z,82.50
2022-11-09T12:34:44.320Z,82.55
2022-11-09T12:37:35.706Z,82.83
2022-11-09T12:40:31.466Z,82.69
2022-11-09T12:43:34.726Z,82.86
2022-11-09T12:46:27.834Z,82.91
2022-11-09T12:49:35.865Z,83.15
2022-11-09T12:52:28.125Z,83.12
2022-11-09T12:55:17.639Z,83.44
2022-11-09T12:58:04.819Z,83.28
2022-11-09T13:00:54.918Z,82.70
2022-11-09T13:03:56.421Z,82.82
2022-11-09T13:07:09.057Z,83.15
2022-11-09T13:09:57.924Z,82.81
2022-11-09T13:12:48.551Z,82.75
2022-11-09T13:15:36.425Z,82.09
2022-11-09T13:18:30.448Z,82.28
2022-11-09T13:21:23.591Z,82.62
2022-11-09T13:24:34.282Z,82.58
2022-11-09T13:27:32.950Z,82.43
2022-11-09T13:30:25.309Z,82.17
2022-11-09T13:33:15.143Z,81.99
2022-11-09T13:36:08.007Z,81.94
2022-11-09T13:39:31.761Z,82.06
2022-11-09T13:42:35.148Z,82.15
2022-11-09T13:45:24.496Z,82.04
2022-11-09T13:48:39.182Z,81.59
2022-11-09T13:51:46.471Z,81.78
2022-11-09T13:54:37.735Z,81.85
2022-11-09T13:57:25.834Z,82.16
2022-11-09T14:00:30.911Z,82.25
2022-11-09T14:03:24.419Z,82.37
2022-11-09T14:06:13.720Z,82.43
2022-11-09T14:09:02.215Z,82.46
2022-11-09T14:12:10.393Z,82.72
2022-11-09T14:15:19.807Z,82.84
2022-11-09T14:18:10.732Z,83.17
2022-11-09T14:21:25.144Z,83.33
2022-11-09T14:24:22.276Z,83.57
2022-11-09T14:27:09.027Z,83.80
2022-11-09T14:29:59.292Z,83.87
2022-11-09T14:32:51.293Z,84.10
2022-11-09T14:35:39.325Z,84.51
2022-11-09T14:38:25.842Z,84.77
2022-11-09T14:41:25.628Z,85.01
2022-11-09T14:44:35.994Z,85.18
2022-11-09T14:47:29.993Z,85.48
2022-11-09T14:50:37.500Z,85.81
2022-11-09T14:53:33.367Z,86.02
2022-11-09T14:56:21.942Z,86.40
2022-11-09T14:59:14.335Z,86.89
2022-11-09T15:02:10.625Z,87.17
2022-11-09T15:05:02.965Z,87.48
2022-11-09T15:07:50.005Z,87.76
2022-11-09T15:10:38.083Z,88.00
2022-11-09T15:13:37.695Z,88.14
2022-11-09T15:16:30.973Z,88.59
2022-11-09T15:19:58.143Z,88.70
2022-11-09T15:22:57.998Z,89.04
2022-11-09T15:25:44.839Z,89.32
2022-11-09T15:28:32.371Z,88.93
2022-11-09T15:31:19.605Z,89.61
2022-11-09T15:34:25.204Z,90.02
2022-11-09T15:37:52.675Z,90.55
2022-11-09T15:40:39.206Z,90.98
2022-11-09T15:43:28.026Z,91.65
2022-11-09T15:46:18.491Z,91.24
2022-11-09T15:49:25.746Z,90.82
2022-11-09T15:52:12.863Z,91.68
2022-11-09T15:54:59.623Z,91.78
2022-11-09T15:57:46.327Z,92.18
2022-11-09T16:00:33.058Z,92.42
2022-11-09T16:03:20.208Z,92.84
2022-11-09T16:06:10.509Z,93.39
2022-11-09T16:08:57.208Z,93.93
2022-11-09T16:11:43.711Z,93.85
2022-11-09T16:14:32.438Z,94.11
2022-11-09T16:17:19.037Z,94.36
2022-11-09T16:20:06.799Z,95.05
2022-11-09T16:22:53.061Z,95.38
2022-11-09T16:25:40.104Z,95.89
2022-11-09T16:28:26.806Z,96.05
2022-11-09T16:31:13.675Z,96.07
2022-11-09T16:33:59.913Z,95.58
2022-11-09T16:36:51.061Z,95.94
2022-11-09T16:39:41.034Z,96.01
2022-11-09T16:42:27.725Z,95.22
2022-11-09T16:45:16.361Z,95.11
2022-11-09T16:48:10.426Z,95.46
2022-11-09T16:50:56.987Z,95.24
2022-11-09T16:53:43.975Z,96.67
2022-11-09T16:56:33.749Z,96.83
2022-11-09T16:59:20.478Z,97.18
2022-11-09T17:02:07.278Z,97.85
2022-11-09T17:04:57.426Z,97.44
2022-11-09T17:07:47.185Z,98.09
2022-11-09T17:10:33.559Z,98.43
2022-11-09T17:13:20.058Z,97.96
2022-11-09T17:16:12.858Z,97.74
2022-11-09T17:19:00.116Z,97.68
2022-11-09T17:21:47.085Z,97.57
2022-11-09T17:24:33.741Z,98.24
2022-11-09T17:27:20.328Z,98.76
2022-11-09T17:30:07.707Z,98.01
2022-11-09T17:32:54.688Z,98.43
2022-11-09T17:35:40.947Z,98.45
2022-11-09T17:38:31.475Z,98.79
2022-11-09T17:41:20.334Z,98.87
2022-11-09T17:44:06.630Z,98.80
2022-11-09T17:46:53.135Z,99.14
2022-11-09T17:49:39.881Z,99.53
2022-11-09T17:52:26.467Z,99.59
2022-11-09T17:55:13.475Z,99.80
2022-11-09T17:57:59.857Z,99.61
2022-11-09T18:00:46.549Z,99.67
2022-11-09T18:03:34.677Z,99.68
2022-11-09T18:06:23.847Z,99.56
2022-11-09T18:09:42.502Z,99.81
2022-11-09T18:12:19.896Z,99.79
2022-11-09T18:15:06.571Z,99.90
2022-11-09T18:17:53.352Z,99.86
2022-11-09T18:20:40.492Z,99.97
2022-11-09T18:23:26.865Z,100.00
2022-11-09T18:26:13.660Z,100.00
2022-11-09T18:29:00.571Z,100.00
2022-11-09T18:31:46.813Z,100.00
2022-11-09T18:34:33.805Z,100.00
2022-11-09T18:37:20.574Z,100.00
2022-11-09T18:40:07.939Z,100.00
2022-11-09T18:42:54.170Z,100.00
2022-11-09T18:45:40.896Z,100.00
2022-11-09T18:48:29.627Z,100.00
2022-11-09T18:51:16.181Z,100.00
2022-11-09T18:54:02.826Z,100.00
2022-11-09T18:56:49.399Z,100.00
2022-11-09T18:59:40.105Z,100.00
2022-11-09T19:02:26.790Z,100.00
2022-11-09T19:05:13.883Z,100.00
2022-11-09T19:08:00.243Z,100.00
2022-11-09T19:10:46.601Z,100.00
2022-11-09T19:13:33.260Z,100.00
2022-11-09T19:16:19.982Z,100.00
2022-11-09T19:19:07.153Z,100.00
2022-11-09T19:21:55.893Z,100.00
2022-11-09T19:24:42.713Z,100.00
2022-11-09T19:27:29.240Z,100.00
2022-11-09T19:30:15.961Z,100.00
2022-11-09T19:33:03.628Z,100.00
2022-11-09T19:36:23.144Z,100.00
2022-11-09T19:39:01.233Z,100.00
2022-11-09T19:41:48.139Z,100.00
2022-11-09T19:44:34.586Z,100.00
2022-11-09T19:47:20.910Z,100.00
2022-11-09T19:50:08.068Z,100.00
2022-11-09T19:52:55.556Z,100.00
2022-11-09T19:55:42.473Z,100.00
2022-11-09T19:58:28.855Z,100.00
2022-11-09T20:01:16.697Z,100.00
2022-11-09T20:04:07.677Z,100.00
2022-11-09T20:06:56.621Z,100.00
2022-11-09T20:09:43.223Z,100.00
2022-11-09T20:12:48.490Z,100.00
2022-11-09T20:15:34.732Z,100.00
2022-11-09T20:18:23.777Z,100.00
2022-11-09T20:21:11.049Z,100.00
2022-11-09T20:23:57.739Z,100.00
2022-11-09T20:26:44.499Z,100.00
2022-11-09T20:29:30.759Z,100.00
2022-11-09T20:32:21.482Z,100.00
2022-11-09T20:35:09.547Z,100.00
2022-11-09T20:37:56.146Z,100.00
2022-11-09T20:40:42.341Z,100.00
2022-11-09T20:43:29.823Z,100.00
2022-11-09T20:46:19.832Z,100.00
2022-11-09T20:49:06.260Z,100.00
2022-11-09T20:51:52.734Z,100.00
2022-11-09T20:54:39.112Z,100.00
2022-11-09T20:57:25.885Z,100.00
2022-11-09T21:00:12.963Z,100.00
2022-11-09T21:02:59.599Z,100.00
2022-11-09T21:05:50.958Z,100.00
2022-11-09T21:08:38.954Z,100.00
2022-11-09T21:11:28.800Z,100.00
2022-11-09T21:14:15.327Z,100.00
2022-11-09T21:17:01.540Z,100.00
2022-11-09T21:19:50.522Z,100.00
2022-11-09T21:22:55.120Z,100.00
2022-11-09T21:26:02.531Z,100.00
2022-11-09T21:29:07.599Z,100.00
2022-11-09T21:31:54.247Z,100.00
2022-11-09T21:34:41.000Z,100.00
2022-11-09T21:37:27.752Z,100.00
2022-11-09T21:40:14.251Z,100.00
2022-11-09T21:43:00.869Z,100.00
2022-11-09T21:45:50.334Z,100.00
2022-11-09T21:48:36.667Z,100.00
2022-11-09T21:51:23.726Z,100.00
2022-11-09T21:54:10.626Z,100.00
2022-11-09T21:56:57.711Z,100.00
2022-11-09T21:59:44.046Z,100.00
2022-11-09T22:02:30.651Z,100.00
2022-11-09T22:05:21.855Z,100.00
2022-11-09T22:08:10.127Z,100.00
2022-11-09T22:11:08.407Z,100.00
2022-11-09T22:14:13.507Z,100.00
2022-11-09T22:17:00.081Z,100.00
2022-11-09T22:20:05.360Z,100.00
2022-11-09T22:22:51.858Z,100.00
2022-11-09T22:25:37.970Z,100.00
2022-11-09T22:28:24.328Z,100.00
2022-11-09T22:31:11.088Z,100.00
2022-11-09T22:33:57.538Z,100.00
2022-11-09T22:36:44.177Z,100.00
2022-11-09T22:39:30.839Z,100.00
2022-11-09T22:42:17.312Z,99.98
2022-11-09T22:45:03.981Z,99.98
2022-11-09T22:47:50.565Z,99.87
2022-11-09T22:50:37.807Z,99.86
2022-11-09T22:53:24.106Z,99.75
2022-11-09T22:56:11.239Z,99.64
2022-11-09T22:58:57.709Z,99.53
2022-11-09T23:01:44.442Z,99.34
2022-11-09T23:04:30.975Z,99.49
2022-11-09T23:07:17.397Z,99.52
2022-11-09T23:10:04.753Z,99.31
2022-11-09T23:12:51.077Z,99.07
2022-11-09T23:15:37.505Z,98.95
2022-11-09T23:18:44.247Z,98.83
2022-11-09T23:21:36.653Z,98.72
2022-11-09T23:24:42.077Z,98.41
2022-11-09T23:27:28.437Z,98.43
2022-11-09T23:30:14.793Z,98.44
2022-11-09T23:33:01.926Z,98.34
2022-11-09T23:35:48.235Z,98.20
2022-11-09T23:38:36.298Z,98.08
2022-11-09T23:41:22.508Z,98.06
2022-11-09T23:44:08.864Z,97.89
2022-11-09T23:46:55.454Z,97.90
2022-11-09T23:49:41.965Z,97.83
2022-11-09T23:52:28.474Z,97.78
2022-11-09T23:55:16.456Z,97.68
2022-11-09T23:58:04.352Z,97.69
